Time;durP1;ratioP1;P1;durP2;ratioP2;P2;SDS_P1;SDS_P2;PMS_P1;PMS_P2;Temp;Humidity;BMP_temperature;BMP_pressure;BME280_temperature;BME280_humidity;BME280_pressure;Samples;Min_cycle;Max_cycle;Signal;HPM_P1;HPM_P2
2023/08/12 00:02:29;;;;;;;0.60;0.60;;;;;;;25.02;64.40;101227.72;5195953;28;20037;-85
2023/08/12 00:05:21;;;;;;;0.82;0.82;;;;;;;24.95;65.01;101230.06;5194877;28;20037;-85
2023/08/12 00:08:12;;;;;;;0.60;0.60;;;;;;;24.96;64.98;101223.72;5194996;28;20043;-85
2023/08/12 00:11:03;;;;;;;0.50;0.50;;;;;;;24.95;64.66;101221.16;5202791;28;20028;-85
2023/08/12 00:13:54;;;;;;;1.05;1.05;;;;;;;24.96;64.66;101221.03;5193988;28;20021;-85
2023/08/12 00:16:44;;;;;;;1.88;1.77;;;;;;;24.93;64.75;101223.09;5189759;28;20440;-85
2023/08/12 00:19:35;;;;;;;1.55;0.80;;;;;;;24.85;65.37;101221.06;5200480;28;20025;-85
2023/08/12 00:22:26;;;;;;;1.10;1.00;;;;;;;24.87;65.18;101208.38;5212006;28;20147;-85
2023/08/12 00:25:17;;;;;;;0.70;0.70;;;;;;;24.86;64.82;101216.53;5192947;28;20044;-84
2023/08/12 00:28:08;;;;;;;0.60;0.60;;;;;;;24.83;64.69;101205.06;5188286;28;20052;-85
2023/08/12 00:30:58;;;;;;;1.25;1.17;;;;;;;24.84;64.80;101197.88;5202077;28;20045;-84
2023/08/12 00:33:49;;;;;;;0.88;0.88;;;;;;;24.83;66.29;101180.91;5201409;28;20107;-85
2023/08/12 00:36:40;;;;;;;0.55;0.55;;;;;;;24.50;70.16;101179.91;5205569;28;20093;-84
2023/08/12 00:39:31;;;;;;;6.72;1.95;;;;;;;24.59;66.79;101172.09;5206697;28;20050;-84
2023/08/12 00:42:21;;;;;;;0.88;0.88;;;;;;;24.69;66.13;101165.06;5207177;28;20060;-87
2023/08/12 00:45:13;;;;;;;4.57;1.27;;;;;;;24.71;65.67;101170.31;5193931;28;20025;-84
2023/08/12 00:48:04;;;;;;;1.95;1.85;;;;;;;24.72;65.80;101178.25;5210353;28;20040;-84
2023/08/12 00:50:55;;;;;;;3.40;1.65;;;;;;;24.71;65.66;101191.78;5207583;28;20096;-84
2023/08/12 00:53:46;;;;;;;3.85;1.45;;;;;;;24.69;65.76;101188.38;5209605;28;20175;-85
2023/08/12 00:56:37;;;;;;;1.20;0.77;;;;;;;24.67;65.44;101185.78;5204798;28;20085;-85
2023/08/12 00:59:28;;;;;;;0.77;0.77;;;;;;;24.66;65.54;101176.03;5208312;28;20067;-84
2023/08/12 01:02:19;;;;;;;0.47;0.47;;;;;;;24.65;65.44;101179.69;5190981;28;20029;-84
2023/08/12 01:05:11;;;;;;;1.95;1.20;;;;;;;24.65;65.89;101182.38;5189786;28;20044;-85
2023/08/12 01:08:01;;;;;;;0.50;0.50;;;;;;;24.61;65.80;101173.72;5214793;28;20022;-85
2023/08/12 01:10:58;;;;;;;3.85;2.25;;;;;;;24.60;65.70;101179.19;5190974;28;20024;-85
2023/08/12 01:14:20;;;;;;;0.60;0.60;;;;;;;24.55;66.02;101165.28;5191158;28;20036;-83
2023/08/12 01:17:12;;;;;;;1.20;1.10;;;;;;;24.56;65.71;101167.00;5213771;28;20025;-85
2023/08/12 01:20:12;;;;;;;0.68;0.57;;;;;;;24.55;65.62;101159.91;5204948;28;20036;-84
2023/08/12 01:23:15;;;;;;;0.98;0.63;;;;;;;24.57;65.90;101153.44;5196356;28;20086;-85
2023/08/12 01:26:07;;;;;;;2.75;0.82;;;;;;;24.54;65.75;101150.16;5200952;28;20025;-85
2023/08/12 01:28:57;;;;;;;0.60;0.60;;;;;;;24.52;66.00;101158.34;5195493;28;20505;-84
2023/08/12 01:31:56;;;;;;;0.50;0.50;;;;;;;24.49;65.90;101154.09;5204817;28;20124;-85
2023/08/12 01:34:56;;;;;;;1.70;1.10;;;;;;;24.40;67.01;101144.09;5219423;28;20044;-84
2023/08/12 01:37:51;;;;;;;1.50;1.40;;;;;;;24.39;66.41;101150.41;5207986;28;20025;-84
2023/08/12 01:40:43;;;;;;;0.70;0.70;;;;;;;24.42;66.43;101143.94;5202520;28;20273;-85
2023/08/12 01:43:34;;;;;;;5.15;0.82;;;;;;;24.42;66.33;101144.78;5209771;28;20033;-84
2023/08/12 01:46:25;;;;;;;0.80;0.80;;;;;;;24.39;66.30;101138.81;5196765;28;20124;-84
2023/08/12 01:49:16;;;;;;;1.30;1.17;;;;;;;24.38;66.03;101137.13;5195750;28;20009;-85
2023/08/12 01:52:07;;;;;;;0.68;0.68;;;;;;;24.34;66.38;101136.50;5235192;28;20025;-85
2023/08/12 01:54:58;;;;;;;0.40;0.40;;;;;;;24.37;66.24;101136.25;5210725;28;20009;-85
2023/08/12 01:57:49;;;;;;;5.72;1.23;;;;;;;24.32;66.19;101127.75;5206921;28;20025;-84
2023/08/12 02:00:40;;;;;;;0.95;0.65;;;;;;;24.26;67.24;101122.84;5203765;28;20029;-85
2023/08/12 02:03:31;;;;;;;0.57;0.57;;;;;;;24.26;66.76;101129.06;5214209;28;20037;-84
2023/08/12 02:06:21;;;;;;;0.65;0.65;;;;;;;24.29;66.76;101122.63;5196133;28;20031;-85
2023/08/12 02:09:12;;;;;;;2.92;2.15;;;;;;;24.27;66.76;101121.88;5227865;28;20037;-86
2023/08/12 02:12:03;;;;;;;0.60;0.60;;;;;;;24.29;66.57;101122.63;5231616;28;20080;-85
2023/08/12 02:14:54;;;;;;;2.40;1.00;;;;;;;24.30;66.78;101124.31;5201453;28;20064;-85
2023/08/12 02:17:45;;;;;;;0.63;0.63;;;;;;;24.26;66.63;101113.00;5194093;28;20029;-84
2023/08/12 02:20:36;;;;;;;0.55;0.55;;;;;;;24.26;66.95;101122.84;5187749;28;20040;-84
2023/08/12 02:23:26;;;;;;;0.55;0.55;;;;;;;24.23;66.85;101121.25;5210765;28;20500;-84
2023/08/12 02:26:17;;;;;;;1.52;1.35;;;;;;;24.20;66.56;101118.84;5202145;28;20115;-85
2023/08/12 02:29:08;;;;;;;1.55;0.50;;;;;;;24.18;66.79;101124.31;5193953;28;20024;-84
2023/08/12 02:31:59;;;;;;;0.50;0.50;;;;;;;24.17;66.66;101129.78;5216885;28;20664;-85
2023/08/12 02:34:50;;;;;;;2.53;0.95;;;;;;;24.15;66.79;101121.00;5192383;28;20029;-84
2023/08/12 02:37:40;;;;;;;0.75;0.75;;;;;;;24.13;66.58;101112.25;5194028;28;20458;-84
2023/08/12 02:40:31;;;;;;;1.02;1.00;;;;;;;24.13;66.74;101106.91;5188665;28;20219;-85
2023/08/12 02:43:22;;;;;;;1.02;0.90;;;;;;;24.14;67.31;101097.84;5206395;28;20057;-85
2023/08/12 02:46:15;;;;;;;0.60;0.60;;;;;;;24.10;67.44;101101.78;5210248;28;20032;-85
2023/08/12 02:49:05;;;;;;;1.30;1.20;;;;;;;24.07;67.29;101096.63;5207859;28;20289;-84
2023/08/12 02:51:56;;;;;;;0.68;0.68;;;;;;;24.08;67.11;101096.53;5199047;28;20044;-85
2023/08/12 02:54:47;;;;;;;2.20;1.58;;;;;;;24.05;67.36;101091.41;5184776;28;20033;-84
2023/08/12 02:57:38;;;;;;;0.50;0.50;;;;;;;24.07;67.16;101086.78;5189583;28;20059;-85
2023/08/12 03:00:29;;;;;;;0.40;0.40;;;;;;;24.04;67.25;101077.16;5203258;28;20029;-84
2023/08/12 03:03:19;;;;;;;1.23;1.13;;;;;;;24.02;67.45;101084.47;5194924;28;20051;-84
2023/08/12 03:06:10;;;;;;;1.50;1.15;;;;;;;24.01;67.20;101082.75;5203814;28;20066;-84
2023/08/12 03:09:01;;;;;;;1.73;1.45;;;;;;;23.99;68.85;101073.13;5192193;28;20116;-85
2023/08/12 03:11:52;;;;;;;0.90;0.90;;;;;;;23.98;67.50;101071.44;5188653;28;20332;-85
2023/08/12 03:14:42;;;;;;;0.73;0.57;;;;;;;23.95;67.70;101067.16;5206066;28;20045;-85
2023/08/12 03:17:33;;;;;;;1.02;0.93;;;;;;;23.96;67.48;101063.53;5199654;28;20493;-84
2023/08/12 03:20:24;;;;;;;1.40;0.80;;;;;;;23.92;67.81;101056.66;5193344;28;20504;-84
2023/08/12 03:23:15;;;;;;;1.33;0.85;;;;;;;23.91;67.46;101049.56;5198418;28;20028;-85
2023/08/12 03:26:06;;;;;;;1.27;1.17;;;;;;;23.89;67.95;101049.72;5193218;28;20036;-84
2023/08/12 03:28:58;;;;;;;0.50;0.50;;;;;;;23.91;67.66;101048.75;5193553;28;20045;-85
2023/08/12 03:31:48;;;;;;;4.03;0.85;;;;;;;23.92;68.07;101047.78;5187461;28;20041;-84
2023/08/12 03:34:39;;;;;;;0.63;0.63;;;;;;;23.93;68.00;101036.06;5189772;28;20037;-85
2023/08/12 03:37:30;;;;;;;0.70;0.70;;;;;;;23.87;68.31;101029.38;5196472;28;20048;-85
2023/08/12 03:40:21;;;;;;;0.63;0.63;;;;;;;23.87;67.80;101027.53;5195356;28;20039;-85
2023/08/12 03:43:11;;;;;;;6.03;1.02;;;;;;;23.88;67.92;101020.38;5190625;28;20130;-84
2023/08/12 03:46:02;;;;;;;0.47;0.43;;;;;;;23.86;67.88;101015.09;5189112;28;20030;-85
2023/08/12 03:48:53;;;;;;;0.77;0.75;;;;;;;23.89;68.27;101011.31;5201542;28;20135;-84
2023/08/12 03:51:44;;;;;;;0.57;0.57;;;;;;;23.84;68.19;101003.66;5202109;28;20065;-84
2023/08/12 03:54:35;;;;;;;0.90;0.85;;;;;;;23.82;68.39;101007.44;5204582;28;20053;-85
2023/08/12 03:57:25;;;;;;;1.35;0.90;;;;;;;23.72;70.82;101001.94;5198182;28;20033;-85
2023/08/12 04:00:16;;;;;;;0.82;0.82;;;;;;;23.76;68.40;101006.09;5184264;28;20021;-84
2023/08/12 04:03:07;;;;;;;0.45;0.45;;;;;;;23.74;68.14;101006.22;5200950;28;20068;-84
2023/08/12 04:05:58;;;;;;;0.30;0.30;;;;;;;23.76;68.45;101000.72;5203768;28;20291;-85
2023/08/12 04:08:48;;;;;;;0.85;0.85;;;;;;;23.71;68.96;101003.78;5201158;28;20028;-84
2023/08/12 04:11:39;;;;;;;0.90;0.80;;;;;;;23.72;68.92;101007.31;5195584;28;20595;-84
2023/08/12 04:14:30;;;;;;;0.82;0.82;;;;;;;23.73;68.23;101012.53;5198608;28;20029;-86
2023/08/12 04:17:21;;;;;;;0.70;0.60;;;;;;;23.71;68.02;101016.31;5198518;28;20021;-84
2023/08/12 04:20:12;;;;;;;0.98;0.93;;;;;;;23.72;68.74;101023.38;5200331;28;20527;-84
2023/08/12 04:23:03;;;;;;;3.25;1.00;;;;;;;23.71;68.56;101022.53;5186814;28;20416;-85
2023/08/12 04:25:54;;;;;;;0.88;0.88;;;;;;;23.68;68.53;101017.41;5219626;28;20024;-85
2023/08/12 04:28:45;;;;;;;1.33;1.17;;;;;;;23.70;68.31;101009.25;5218871;28;20052;-86
2023/08/12 04:31:35;;;;;;;5.03;0.80;;;;;;;23.66;69.06;101003.28;5219241;28;20164;-86
2023/08/12 04:34:26;;;;;;;2.00;0.95;;;;;;;23.65;68.72;101001.56;5232555;28;20053;-85
2023/08/12 04:37:17;;;;;;;0.68;0.63;;;;;;;23.65;68.66;100996.22;5209295;28;20422;-84
2023/08/12 04:40:08;;;;;;;5.68;1.48;;;;;;;23.66;68.78;100994.41;5220823;28;20587;-84
2023/08/12 04:42:59;;;;;;;1.15;1.02;;;;;;;23.63;69.07;100991.97;5209053;28;20045;-85
2023/08/12 04:45:50;;;;;;;1.38;1.27;;;;;;;23.61;69.06;100993.91;5197464;28;20025;-85
2023/08/12 04:48:41;;;;;;;1.23;1.13;;;;;;;23.61;68.94;100991.22;5206852;28;20117;-85
2023/08/12 04:51:32;;;;;;;4.03;1.17;;;;;;;23.59;68.75;100986.00;5188099;28;20033;-85
2023/08/12 04:54:23;;;;;;;2.60;1.73;;;;;;;23.60;68.66;100984.16;5195583;28;20030;-85
2023/08/12 04:57:14;;;;;;;0.55;0.55;;;;;;;23.57;68.77;100978.09;5204406;28;20143;-85
2023/08/12 05:00:08;;;;;;;0.75;0.75;;;;;;;23.57;68.76;100980.75;5204751;28;20586;-84
2023/08/12 05:02:59;;;;;;;5.47;2.38;;;;;;;23.55;68.75;100979.19;5196893;28;20044;-85
2023/08/12 05:05:51;;;;;;;0.70;0.70;;;;;;;23.56;68.95;100976.38;5197804;28;20033;-84
2023/08/12 05:08:42;;;;;;;0.75;0.75;;;;;;;23.58;68.72;100977.13;5207031;28;20087;-85
2023/08/12 05:11:33;;;;;;;0.77;0.65;;;;;;;23.56;69.10;100973.69;5182197;28;20149;-85
2023/08/12 05:14:23;;;;;;;1.73;1.55;;;;;;;23.55;69.04;100979.19;5201960;28;20491;-85
2023/08/12 05:17:15;;;;;;;1.17;1.10;;;;;;;23.57;69.27;100967.38;5192319;28;20041;-85
2023/08/12 05:20:06;;;;;;;16.52;1.70;;;;;;;23.56;69.14;100965.66;5203245;28;20034;-85
2023/08/12 05:22:57;;;;;;;1.15;0.95;;;;;;;23.53;70.36;100957.03;5188541;28;20036;-86
2023/08/12 05:25:48;;;;;;;0.70;0.70;;;;;;;23.52;70.21;100961.50;5202152;28;20541;-85
2023/08/12 05:28:39;;;;;;;2.67;1.27;;;;;;;23.53;69.56;100965.88;5205492;28;20030;-85
2023/08/12 05:31:30;;;;;;;1.08;1.00;;;;;;;23.53;69.67;100975.75;5214419;28;20025;-84
2023/08/12 05:34:20;;;;;;;1.35;1.25;;;;;;;23.54;70.26;100975.63;5204024;28;20492;-85
2023/08/12 05:37:11;;;;;;;0.90;0.90;;;;;;;23.52;71.47;100980.25;5206344;28;20060;-84
2023/08/12 05:40:04;;;;;;;1.55;1.27;;;;;;;23.52;71.08;100990.97;5194558;28;20017;-85
2023/08/12 05:42:54;;;;;;;2.00;1.55;;;;;;;23.49;71.73;100993.91;5200994;28;20032;-85
2023/08/12 05:45:45;;;;;;;1.15;1.02;;;;;;;23.50;74.15;100987.56;5223276;28;20079;-85
2023/08/12 05:48:36;;;;;;;0.90;0.77;;;;;;;23.44;71.99;100992.53;5195723;28;20021;-84
2023/08/12 05:51:27;;;;;;;3.08;1.88;;;;;;;23.47;71.78;100990.47;5193028;28;20040;-85
2023/08/12 05:54:18;;;;;;;1.13;1.10;;;;;;;23.45;71.01;100995.09;5231209;28;20032;-84
2023/08/12 05:57:09;;;;;;;2.13;1.20;;;;;;;23.44;70.83;100985.34;5207346;28;20966;-86
2023/08/12 06:00:00;;;;;;;1.58;1.48;;;;;;;23.39;70.84;100977.66;5226809;28;20025;-85
2023/08/12 06:02:51;;;;;;;3.33;1.10;;;;;;;23.39;71.15;100979.50;5207978;28;20045;-85
2023/08/12 06:05:44;;;;;;;1.98;1.27;;;;;;;23.35;70.72;100973.53;5196174;28;20104;-85
2023/08/12 06:08:35;;;;;;;1.27;1.25;;;;;;;23.36;71.01;100974.38;5193434;28;20029;-85
2023/08/12 06:11:26;;;;;;;1.58;1.48;;;;;;;23.33;71.26;100969.28;5193709;28;20025;-85
2023/08/12 06:14:17;;;;;;;4.93;1.65;;;;;;;23.29;71.46;100973.16;5195662;28;20428;-86
2023/08/12 06:17:08;;;;;;;2.28;2.08;;;;;;;23.25;74.42;100970.72;5211323;28;20274;-86
2023/08/12 06:19:58;;;;;;;1.48;1.15;;;;;;;23.21;73.27;100973.75;5218291;28;20045;-86
2023/08/12 06:22:50;;;;;;;2.15;1.35;;;;;;;23.17;74.43;100967.75;5206399;28;20033;-86
2023/08/12 06:25:42;;;;;;;0.80;0.80;;;;;;;23.18;73.84;100963.28;5191325;28;20036;-86
2023/08/12 06:28:33;;;;;;;1.97;1.53;;;;;;;23.21;74.12;100971.09;5220042;28;20473;-88
2023/08/12 06:31:24;;;;;;;5.88;1.25;;;;;;;23.10;74.53;100961.13;5204555;28;20039;-88
2023/08/12 06:34:15;;;;;;;1.02;1.00;;;;;;;23.13;73.29;100952.91;5183972;28;20098;-89
2023/08/12 06:37:05;;;;;;;2.45;1.65;;;;;;;23.14;74.50;100951.94;5227183;28;20052;-88
2023/08/12 06:39:56;;;;;;;1.38;1.27;;;;;;;23.14;73.94;100938.53;5206878;28;20082;-88
2023/08/12 06:42:47;;;;;;;2.15;1.77;;;;;;;23.09;77.03;100938.06;5191786;28;20051;-88
2023/08/12 06:45:38;;;;;;;1.15;1.05;;;;;;;23.12;73.17;100927.09;5225336;28;20049;-88
2023/08/12 06:48:28;;;;;;;1.45;1.35;;;;;;;23.14;73.04;100909.09;5203645;28;20035;-88
2023/08/12 06:51:19;;;;;;;1.23;1.13;;;;;;;23.11;73.55;100899.50;5190495;28;20120;-87
2023/08/12 06:54:10;;;;;;;2.17;1.85;;;;;;;23.16;72.35;100904.50;5193929;28;20028;-88
2023/08/12 06:57:01;;;;;;;1.13;0.88;;;;;;;23.21;72.26;100912.19;5215825;28;20028;-88
2023/08/12 06:59:52;;;;;;;4.80;1.92;;;;;;;23.26;73.10;100907.31;5204848;28;20025;-89
2023/08/12 07:02:43;;;;;;;0.68;0.68;;;;;;;23.23;72.93;100919.13;5189010;28;20124;-88
2023/08/12 07:05:33;;;;;;;0.45;0.45;;;;;;;23.29;72.29;100939.22;5188858;28;20029;-88
2023/08/12 07:08:24;;;;;;;1.75;1.05;;;;;;;23.27;73.96;100938.47;5202768;28;20079;-88
2023/08/12 07:11:15;;;;;;;1.00;1.00;;;;;;;23.36;74.78;100942.25;5193883;28;20021;-89
2023/08/12 07:14:06;;;;;;;1.25;1.13;;;;;;;23.35;76.01;100957.47;5206799;28;20104;-88
2023/08/12 07:16:56;;;;;;;0.22;0.22;;;;;;;23.35;74.83;100945.91;5204526;28;20025;-89
2023/08/12 07:19:47;;;;;;;0.30;0.30;;;;;;;23.34;75.16;100929.00;5213355;28;20565;-88
2023/08/12 07:22:38;;;;;;;0.40;0.40;;;;;;;23.39;73.83;100931.31;5213038;28;20028;-88
2023/08/12 07:25:29;;;;;;;1.20;0.98;;;;;;;23.47;74.98;100936.94;5196194;28;20051;-88
2023/08/12 07:28:20;;;;;;;0.30;0.30;;;;;;;23.51;74.69;100945.56;5211463;28;20120;-88
2023/08/12 07:31:11;;;;;;;1.20;1.13;;;;;;;23.41;76.72;100940.94;5210442;28;20519;-88
2023/08/12 07:34:02;;;;;;;0.70;0.70;;;;;;;23.27;78.10;100933.13;5196391;28;20028;-89
2023/08/12 07:36:53;;;;;;;0.70;0.70;;;;;;;23.38;75.54;100929.59;5188399;28;20048;-88
2023/08/12 07:39:44;;;;;;;2.05;0.88;;;;;;;23.40;74.01;100923.16;5195766;28;20090;-88
2023/08/12 07:42:34;;;;;;;0.40;0.40;;;;;;;23.46;74.26;100931.69;5190764;28;20036;-89
2023/08/12 07:45:25;;;;;;;1.17;1.13;;;;;;;23.41;74.58;100946.28;5183798;28;20066;-95
2023/08/12 07:48:16;;;;;;;0.60;0.60;;;;;;;23.42;75.54;100941.81;5201993;28;20029;-92
2023/08/12 07:51:07;;;;;;;0.30;0.25;;;;;;;23.46;74.34;100945.94;5191122;28;20030;-88
2023/08/12 07:53:57;;;;;;;1.55;1.10;;;;;;;23.38;75.92;100940.31;5205168;28;20028;-91
2023/08/12 07:56:48;;;;;;;1.90;1.80;;;;;;;23.41;76.29;100935.56;5235121;28;20040;-95
2023/08/12 07:59:39;;;;;;;0.52;0.52;;;;;;;23.46;73.92;100926.34;5206437;23;20399;-86
2023/08/12 08:02:30;;;;;;;0.47;0.47;;;;;;;23.44;73.64;100923.75;5201363;28;20055;-86
2023/08/12 08:05:21;;;;;;;0.35;0.35;;;;;;;23.52;73.44;100915.16;5184388;28;20033;-85
2023/08/12 08:08:12;;;;;;;0.30;0.30;;;;;;;23.51;74.67;100916.94;5179472;28;20773;-85
2023/08/12 08:11:03;;;;;;;0.70;0.43;;;;;;;23.57;74.57;100923.66;5190906;28;20030;-86
2023/08/12 08:13:54;;;;;;;0.30;0.30;;;;;;;23.66;74.51;100922.09;5179712;28;20115;-86
2023/08/12 08:16:44;;;;;;;0.45;0.45;;;;;;;23.52;77.50;100924.00;5199107;28;20025;-85
2023/08/12 08:19:35;;;;;;;0.30;0.30;;;;;;;23.64;74.78;100935.59;5193214;28;20021;-85
2023/08/12 08:22:26;;;;;;;1.02;0.98;;;;;;;23.59;76.60;100927.06;5184476;28;20040;-86
2023/08/12 08:25:17;;;;;;;0.25;0.25;;;;;;;23.68;75.60;100910.28;5191719;28;20052;-85
2023/08/12 08:28:08;;;;;;;0.80;0.80;;;;;;;23.71;75.37;100919.88;5185741;28;20041;-85
2023/08/12 08:30:58;;;;;;;1.58;0.95;;;;;;;23.72;74.64;100921.59;5192639;28;20043;-85
2023/08/12 08:33:49;;;;;;;0.60;0.50;;;;;;;23.73;74.78;100942.88;5182492;28;20060;-85
2023/08/12 08:36:40;;;;;;;0.30;0.30;;;;;;;23.73;75.03;100934.00;5195352;28;20577;-85
2023/08/12 08:39:31;;;;;;;0.47;0.20;;;;;;;23.72;75.88;100949.22;5200966;28;20070;-85
2023/08/12 08:42:24;;;;;;;0.30;0.30;;;;;;;23.73;75.39;100940.22;5186670;28;20098;-85
2023/08/12 08:45:16;;;;;;;0.30;0.30;;;;;;;23.72;74.67;100943.84;5197753;28;20434;-85
2023/08/12 08:48:09;;;;;;;0.30;0.30;;;;;;;23.69;77.16;100933.41;5179722;28;20067;-85
2023/08/12 08:51:01;;;;;;;0.52;0.52;;;;;;;23.63;75.76;100936.59;5191667;28;20075;-85
2023/08/12 08:53:55;;;;;;;0.35;0.35;;;;;;;23.74;75.78;100941.09;5185574;28;20460;-85
2023/08/12 08:56:49;;;;;;;0.22;0.22;;;;;;;23.66;75.57;100943.50;5197289;28;20048;-85
2023/08/12 08:59:40;;;;;;;0.20;0.20;;;;;;;23.50;77.63;100939.38;5189327;28;20154;-85
2023/08/12 09:02:31;;;;;;;0.10;0.10;;;;;;;23.36;78.43;100947.59;5184565;28;20040;-85
2023/08/12 09:05:23;;;;;;;1.63;0.95;;;;;;;23.37;78.72;100947.50;5184733;28;20108;-85
2023/08/12 09:08:14;;;;;;;0.20;0.20;;;;;;;23.32;79.42;100955.03;5184430;28;20099;-86
2023/08/12 09:11:06;;;;;;;0.20;0.20;;;;;;;23.44;78.70;100953.22;5191045;28;20375;-85
2023/08/12 09:13:56;;;;;;;0.43;0.43;;;;;;;23.46;79.32;100953.13;5188598;28;20064;-84
2023/08/12 09:16:47;;;;;;;0.20;0.20;;;;;;;23.38;80.67;100951.91;5179542;28;20095;-84
2023/08/12 09:19:38;;;;;;;0.30;0.30;;;;;;;23.49;79.79;100951.06;5181548;28;20029;-85
2023/08/12 09:22:29;;;;;;;0.20;0.20;;;;;;;23.48;78.92;100946.66;5182782;28;20037;-85
2023/08/12 09:25:20;;;;;;;0.40;0.40;;;;;;;23.54;78.18;100948.84;5195887;28;20029;-85
2023/08/12 09:28:12;;;;;;;0.20;0.20;;;;;;;23.47;78.53;100944.97;5194777;28;20427;-85
2023/08/12 09:31:02;;;;;;;0.80;0.45;;;;;;;23.59;78.20;100943.13;5184737;28;20414;-85
2023/08/12 09:33:58;;;;;;;0.20;0.20;;;;;;;23.45;78.92;100954.09;5183503;28;20040;-85
2023/08/12 09:36:49;;;;;;;0.30;0.30;;;;;;;23.32;80.58;100956.88;5177368;28;20391;-85
2023/08/12 09:39:40;;;;;;;0.38;0.38;;;;;;;23.46;78.75;100953.97;5201538;28;20026;-86
2023/08/12 09:42:31;;;;;;;0.25;0.25;;;;;;;23.35;79.59;100944.09;5185831;28;20033;-87
2023/08/12 09:45:31;;;;;;;0.20;0.20;;;;;;;23.41;80.00;100953.47;5197051;28;20108;-86
2023/08/12 09:48:22;;;;;;;2.38;1.45;;;;;;;23.39;79.58;100939.34;5188425;28;20040;-88
2023/08/12 09:51:13;;;;;;;0.30;0.30;;;;;;;23.41;78.78;100934.72;5208345;28;20378;-87
2023/08/12 09:54:04;;;;;;;3.72;1.38;;;;;;;23.52;77.73;100932.03;5186495;28;20333;-88
2023/08/12 09:57:01;;;;;;;0.10;0.10;;;;;;;23.33;77.93;100932.66;5195498;28;20406;-88
2023/08/12 10:06:38;;;;;;;;;;;;;;;23.02;79.22;100939.47;5373681;22;20200;-87
2023/08/12 10:09:29;;;;;;;0.20;0.20;;;;;;;23.17;79.96;100938.31;5192231;28;19916;-87
2023/08/12 10:12:21;;;;;;;1.75;0.50;;;;;;;23.16;79.79;100925.91;5196724;28;20064;-89
2023/08/12 10:15:12;;;;;;;0.40;0.40;;;;;;;23.27;79.63;100933.97;5190889;28;20045;-90
2023/08/12 10:18:06;;;;;;;0.32;0.32;;;;;;;23.42;79.27;100928.41;5185669;28;20030;-91
2023/08/12 10:20:59;;;;;;;0.38;0.38;;;;;;;23.45;78.55;100925.47;5198848;28;20017;-90
2023/08/12 10:23:53;;;;;;;0.30;0.30;;;;;;;23.53;78.13;100920.38;5203672;28;20090;-90
2023/08/12 10:26:54;;;;;;;0.20;0.20;;;;;;;23.55;77.96;100920.25;5198577;28;20026;-90
2023/08/12 10:29:46;;;;;;;0.10;0.10;;;;;;;23.49;78.43;100915.38;5193120;28;20029;-86
2023/08/12 10:32:37;;;;;;;0.10;0.10;;;;;;;23.44;79.58;100937.16;5214360;28;20030;-89
2023/08/12 10:35:58;;;;;;;0.15;0.15;;;;;;;23.05;82.29;100939.25;5203746;28;20017;-88
2023/08/12 10:38:57;;;;;;;0.10;0.10;;;;;;;23.48;80.13;100941.31;5188498;28;20041;-89
2023/08/12 10:42:10;;;;;;;0.40;0.40;;;;;;;23.37;82.52;100949.31;5215951;28;20025;-89
2023/08/12 10:45:06;;;;;;;0.30;0.30;;;;;;;23.32;81.91;100943.47;5189663;28;20140;-89
2023/08/12 10:48:17;;;;;;;0.40;0.40;;;;;;;23.14;83.20;100948.41;5187263;28;20117;-88
2023/08/12 10:51:39;;;;;;;0.50;0.50;;;;;;;23.03;84.54;100957.22;5191883;28;20318;-88
2023/08/12 10:54:55;;;;;;;0.10;0.10;;;;;;;22.66;86.29;100950.16;5188495;28;20041;-87
2023/08/12 10:57:51;;;;;;;0.20;0.20;;;;;;;22.81;86.47;100940.16;5187186;28;20309;-90
2023/08/12 11:00:53;;;;;;;0.20;0.20;;;;;;;22.78;86.63;100937.69;5188043;28;20026;-88
2023/08/12 11:03:50;;;;;;;0.20;0.20;;;;;;;22.90;85.66;100934.09;5211273;28;20051;-89
2023/08/12 11:07:44;;;;;;;0.20;0.20;;;;;;;23.19;83.84;100931.03;5178380;28;20042;-86
2023/08/12 11:10:56;;;;;;;0.20;0.20;;;;;;;23.05;84.40;100934.75;5159597;28;20041;-87
2023/08/12 11:16:38;;;;;;;0.30;0.30;;;;;;;23.18;85.04;100921.28;5247292;23;20053;-88
2023/08/12 11:19:29;;;;;;;0.38;0.38;;;;;;;23.19;85.62;100909.63;5190233;28;20544;-90
2023/08/12 11:22:20;;;;;;;0.20;0.20;;;;;;;23.41;84.73;100910.63;5197595;28;20024;-89
2023/08/12 11:25:12;;;;;;;0.15;0.15;;;;;;;23.55;84.47;100907.72;5191661;28;20017;-89
2023/08/12 11:28:07;;;;;;;0.20;0.20;;;;;;;23.63;83.23;100911.59;5193098;28;20036;-88
2023/08/12 11:30:58;;;;;;;0.20;0.20;;;;;;;23.47;82.21;100907.47;5191412;28;20025;-90
2023/08/12 11:33:49;;;;;;;0.20;0.20;;;;;;;23.52;82.34;100907.94;5227479;28;20656;-89
2023/08/12 11:36:40;;;;;;;0.30;0.25;;;;;;;23.47;82.40;100910.16;5212070;28;20470;-90
2023/08/12 11:39:31;;;;;;;0.38;0.38;;;;;;;23.64;81.53;100908.78;5198473;28;20074;-90
2023/08/12 11:42:22;;;;;;;0.20;0.20;;;;;;;23.65;80.79;100907.81;5204000;28;20039;-90
2023/08/12 11:45:16;;;;;;;0.15;0.15;;;;;;;23.61;80.47;100913.53;5199895;28;20654;-89
2023/08/12 11:48:07;;;;;;;0.22;0.22;;;;;;;23.66;80.21;100911.38;5199038;28;20028;-91
2023/08/12 11:50:58;;;;;;;0.20;0.20;;;;;;;23.57;81.16;100904.91;5201534;28;20021;-91
2023/08/12 11:53:49;;;;;;;0.20;0.20;;;;;;;23.50;81.12;100912.59;5198242;28;20029;-91
2023/08/12 11:56:41;;;;;;;0.20;0.20;;;;;;;23.38;80.50;100913.53;5215396;28;20033;-93
2023/08/12 11:59:32;;;;;;;0.40;0.40;;;;;;;23.37;81.54;100907.34;5197584;28;20037;-89
2023/08/12 12:02:23;;;;;;;0.30;0.30;;;;;;;23.41;80.45;100902.59;5221100;28;20036;-91
2023/08/12 12:05:14;;;;;;;0.15;0.15;;;;;;;23.64;81.44;100903.44;5177170;28;20048;-91
2023/08/12 12:08:08;;;;;;;0.73;0.73;;;;;;;23.84;82.87;100892.97;5192773;28;20060;-91
2023/08/12 12:11:06;;;;;;;0.20;0.20;;;;;;;23.84;81.96;100890.28;5188447;28;20044;-91
2023/08/12 12:14:01;;;;;;;0.20;0.20;;;;;;;23.94;81.36;100891.28;5195042;28;20043;-90
2023/08/12 12:16:52;;;;;;;0.30;0.30;;;;;;;24.05;80.48;100890.41;5173755;28;20103;-91
2023/08/12 12:19:43;;;;;;;0.10;0.10;;;;;;;24.18;80.35;100891.09;5188795;28;20032;-90
2023/08/12 12:22:34;;;;;;;0.20;0.20;;;;;;;24.31;78.78;100892.78;5196353;28;20064;-90
2023/08/12 12:25:25;;;;;;;0.30;0.30;;;;;;;23.85;78.54;100894.66;5202371;28;20029;-90
2023/08/12 12:28:15;;;;;;;0.30;0.30;;;;;;;23.65;78.71;100915.88;5187603;28;20551;-91
2023/08/12 12:31:07;;;;;;;0.10;0.10;;;;;;;23.27;79.10;100909.88;5185872;28;20309;-90
2023/08/12 12:33:58;;;;;;;0.20;0.20;;;;;;;23.57;78.83;100937.91;5207631;28;20036;-93
2023/08/12 12:36:49;;;;;;;0.20;0.20;;;;;;;23.67;79.29;100950.59;5209894;28;20492;-92
2023/08/12 12:39:40;;;;;;;0.30;0.30;;;;;;;23.78;79.16;100968.47;5185243;28;20074;-90
2023/08/12 12:42:31;;;;;;;0.20;0.20;;;;;;;23.63;79.48;100959.81;5191422;28;20070;-90
2023/08/12 12:45:22;;;;;;;0.30;0.30;;;;;;;23.83;78.53;100955.56;5193829;28;20622;-89
2023/08/12 12:48:13;;;;;;;0.15;0.15;;;;;;;23.88;79.23;100956.91;5192478;28;20024;-90
2023/08/12 12:51:03;;;;;;;0.22;0.22;;;;;;;23.86;79.71;100964.19;5193270;28;21411;-90
2023/08/12 12:53:54;;;;;;;1.42;0.45;;;;;;;23.86;79.28;100964.19;5195763;28;20028;-89
2023/08/12 12:56:45;;;;;;;0.10;0.10;;;;;;;23.67;81.98;100963.97;5189215;28;20033;-89
2023/08/12 12:59:36;;;;;;;0.22;0.20;;;;;;;23.76;83.53;100960.53;5187697;28;20037;-89
2023/08/12 13:02:27;;;;;;;0.20;0.20;;;;;;;23.69;83.29;100968.22;5188069;28;20029;-90
2023/08/12 13:05:18;;;;;;;0.20;0.20;;;;;;;23.95;80.76;100969.84;5184566;28;20445;-89
2023/08/12 13:08:09;;;;;;;0.20;0.20;;;;;;;23.87;82.80;100978.47;5186102;28;20426;-90
2023/08/12 13:10:59;;;;;;;0.22;0.22;;;;;;;23.51;83.26;100967.84;5189727;28;20047;-91
2023/08/12 13:13:50;;;;;;;0.15;0.15;;;;;;;23.70;81.81;100982.47;5189825;28;20029;-90
2023/08/12 13:16:41;;;;;;;0.30;0.30;;;;;;;23.98;80.36;100977.63;5189400;28;20040;-90
2023/08/12 13:19:32;;;;;;;0.20;0.20;;;;;;;23.94;81.43;100978.84;5202169;23;20056;-85
2023/08/12 13:22:23;;;;;;;0.20;0.20;;;;;;;23.84;81.60;100979.53;5167438;28;20032;-83
2023/08/12 13:25:14;;;;;;;0.57;0.50;;;;;;;23.73;81.92;100984.91;5168318;28;20045;-85
2023/08/12 13:28:05;;;;;;;0.20;0.20;;;;;;;23.76;81.35;100987.31;5166928;28;20029;-84
2023/08/12 13:30:56;;;;;;;0.20;0.20;;;;;;;23.94;79.17;100998.47;5159562;28;20049;-83